createdAt,value
2018-04-22T00:00:48.639Z,21.4
2018-04-22T00:01:38.685Z,21.4
2018-04-22T00:02:28.182Z,21.4
2018-04-22T00:03:19.075Z,21.4
2018-04-22T00:04:09.157Z,21.4
2018-04-22T00:04:59.452Z,21.4
2018-04-22T00:05:49.248Z,21.3
2018-04-22T00:06:38.778Z,21.3
2018-04-22T00:07:28.929Z,21.3
2018-04-22T00:08:19.480Z,21.3
2018-04-22T00:09:08.985Z,21.3
2018-04-22T00:09:59.409Z,21.3
2018-04-22T00:10:49.358Z,21.3
2018-04-22T00:11:38.876Z,21.3
2018-04-22T00:12:29.538Z,21.3
2018-04-22T00:13:19.028Z,21.3
2018-04-22T00:14:10.044Z,21.3
2018-04-22T00:14:59.980Z,21.3
2018-04-22T00:15:48.994Z,21.3
2018-04-22T00:16:39.831Z,21.3
2018-04-22T00:17:29.597Z,21.3
2018-04-22T00:18:19.672Z,21.2
2018-04-22T00:19:10.332Z,21.2
2018-04-22T00:20:00.338Z,21.2
2018-04-22T00:20:49.879Z,21.2
2018-04-22T00:21:40.201Z,21.2
2018-04-22T00:22:30.269Z,21.2
2018-04-22T00:23:19.703Z,21.2
2018-04-22T00:24:10.087Z,21.2
2018-04-22T00:30:50.934Z,21.1
2018-04-22T00:34:10.870Z,21.1
2018-04-22T00:35:00.715Z,21.1
2018-04-22T00:35:50.477Z,21.1
2018-04-22T00:36:41.608Z,21.1
2018-04-22T00:37:30.864Z,21.1
2018-04-22T00:38:20.913Z,21.1
2018-04-22T00:39:11.796Z,21.1
2018-04-22T00:40:01.580Z,21
2018-04-22T00:40:51.110Z,21
2018-04-22T00:41:41.423Z,21
2018-04-22T00:42:31.242Z,21
2018-04-22T00:43:21.853Z,21
2018-04-22T00:44:11.898Z,21
2018-04-22T00:45:01.999Z,21
2018-04-22T00:45:52.077Z,20.9
2018-04-22T00:46:42.373Z,21
2018-04-22T00:47:31.303Z,20.9
2018-04-22T00:48:22.487Z,20.9
2018-04-22T00:49:12.549Z,20.9
2018-04-22T00:50:02.068Z,20.9
2018-04-22T00:50:52.432Z,20.9
2018-04-22T00:51:42.754Z,20.9
2018-04-22T00:52:32.292Z,20.9
2018-04-22T00:53:22.851Z,20.9
2018-04-22T00:54:12.636Z,20.9
2018-04-22T00:55:02.429Z,20.9
2018-04-22T00:55:52.838Z,20.9
2018-04-22T00:56:42.855Z,20.9
2018-04-22T00:57:32.940Z,20.9
2018-04-22T00:58:22.997Z,20.9
2018-04-22T00:59:12.764Z,20.9
2018-04-22T01:00:02.313Z,20.9
2018-04-22T01:00:53.155Z,20.9
2018-04-22T01:01:42.984Z,20.9
2018-04-22T01:02:33.286Z,20.8
2018-04-22T01:03:23.391Z,20.8
2018-04-22T01:04:13.190Z,20.8
2018-04-22T01:05:03.240Z,20.8
2018-04-22T01:05:53.310Z,20.8
2018-04-22T01:06:43.388Z,20.8
2018-04-22T01:07:33.409Z,20.8
2018-04-22T01:08:23.453Z,20.8
2018-04-22T01:09:12.986Z,20.8
2018-04-22T01:10:03.881Z,20.8
2018-04-22T01:10:53.982Z,20.8
2018-04-22T01:11:44.316Z,20.8
2018-04-22T01:12:34.069Z,20.8
2018-04-22T01:13:24.075Z,20.8
2018-04-22T01:14:14.256Z,20.8
2018-04-22T01:15:04.074Z,20.8
2018-04-22T01:15:53.581Z,20.8
2018-04-22T01:16:44.176Z,20.8
2018-04-22T01:17:33.898Z,20.8
2018-04-22T01:18:24.282Z,20.8
2018-04-22T01:19:14.059Z,20.7
2018-04-22T01:20:03.602Z,20.7
2018-04-22T01:20:54.509Z,20.7
2018-04-22T01:21:44.008Z,20.7
2018-04-22T01:22:34.834Z,20.7
2018-04-22T01:23:24.946Z,20.7
2018-04-22T01:24:14.484Z,20.7
2018-04-22T01:25:04.488Z,20.7
2018-04-22T01:25:55.084Z,20.6
2018-04-22T01:26:44.905Z,20.6
2018-04-22T01:27:34.683Z,20.6
2018-04-22T01:28:25.276Z,20.6
2018-04-22T01:29:15.067Z,20.6
2018-04-22T01:30:05.113Z,20.6
2018-04-22T01:30:55.730Z,20.6
2018-04-22T01:31:45.777Z,20.6
2018-04-22T01:32:35.040Z,20.6
2018-04-22T01:33:25.136Z,20.6
2018-04-22T01:34:15.992Z,20.6
2018-04-22T01:35:06.040Z,20.6
2018-04-22T01:35:56.146Z,20.6
2018-04-22T01:36:45.371Z,20.6
2018-04-22T01:37:35.372Z,20.6
2018-04-22T01:38:26.014Z,20.6
2018-04-22T01:39:16.146Z,20.6
2018-04-22T01:40:06.471Z,20.6
2018-04-22T01:40:56.215Z,20.6
2018-04-22T01:41:46.035Z,20.5
2018-04-22T01:42:35.511Z,20.6
2018-04-22T01:43:26.132Z,20.5
2018-04-22T01:44:16.185Z,20.5
2018-04-22T01:45:06.596Z,20.5
2018-04-22T01:45:56.841Z,20.5
2018-04-22T01:46:46.655Z,20.5
2018-04-22T01:47:37.008Z,20.5
2018-04-22T01:48:26.781Z,20.5
2018-04-22T01:49:17.138Z,20.5
2018-04-22T01:50:06.638Z,20.5
2018-04-22T01:50:57.004Z,20.5
2018-04-22T01:51:47.048Z,20.5
2018-04-22T01:52:36.541Z,20.5
2018-04-22T01:53:26.616Z,20.4
2018-04-22T01:54:17.256Z,20.4
2018-04-22T01:55:07.043Z,20.4
2018-04-22T01:55:57.083Z,20.4
2018-04-22T01:56:47.432Z,20.4
2018-04-22T01:57:37.802Z,20.4
2018-04-22T01:58:27.301Z,20.4
2018-04-22T01:59:17.053Z,20.4
2018-04-22T02:00:07.737Z,20.4
2018-04-22T02:00:56.968Z,20.4
2018-04-22T02:01:47.285Z,20.4
2018-04-22T02:02:37.903Z,20.4
2018-04-22T02:03:27.948Z,20.4
2018-04-22T02:04:17.477Z,20.4
2018-04-22T02:05:08.390Z,20.4
2018-04-22T02:05:57.317Z,20.4
2018-04-22T02:06:48.205Z,20.4
2018-04-22T02:07:38.282Z,20.3
2018-04-22T02:08:28.139Z,20.4
2018-04-22T02:09:18.124Z,20.3
2018-04-22T02:10:08.191Z,20.4
2018-04-22T02:10:58.238Z,20.4
2018-04-22T02:11:48.351Z,20.3
2018-04-22T02:12:37.606Z,20.3
2018-04-22T02:13:27.662Z,20.3
2018-04-22T02:14:17.999Z,20.3
2018-04-22T02:15:09.160Z,20.3
2018-04-22T02:15:58.679Z,20.3
2018-04-22T02:16:48.949Z,20.3
2018-04-22T02:17:39.305Z,20.3
2018-04-22T02:18:29.383Z,20.3
2018-04-22T02:19:19.403Z,20.3
2018-04-22T02:20:08.934Z,20.3
2018-04-22T02:20:59.511Z,20.3
2018-04-22T02:21:48.780Z,20.3
2018-04-22T02:22:39.401Z,20.3
2018-04-22T02:23:29.706Z,20.3
2018-04-22T02:24:19.250Z,20.3
2018-04-22T02:25:09.283Z,20.3
2018-04-22T02:25:59.953Z,20.3
2018-04-22T02:26:49.804Z,20.3
2018-04-22T02:27:39.794Z,20.3
2018-04-22T02:28:28.718Z,20.3
2018-04-22T02:29:19.608Z,20.2
2018-04-22T02:30:09.435Z,20.2
2018-04-22T02:31:00.059Z,20.2
2018-04-22T02:31:49.823Z,20.2
2018-04-22T02:32:40.516Z,20.2
2018-04-22T02:33:30.529Z,20.2
2018-04-22T02:34:20.050Z,20.2
2018-04-22T02:35:10.393Z,20.2
2018-04-22T02:36:00.723Z,20.2
2018-04-22T02:36:50.447Z,20.2
2018-04-22T02:37:40.299Z,20.2
2018-04-22T02:38:30.950Z,20.2
2018-04-22T02:39:20.981Z,20.1
2018-04-22T02:40:10.710Z,20.1
2018-04-22T02:41:00.589Z,20.1
2018-04-22T02:41:50.351Z,20.1
2018-04-22T02:42:40.652Z,20.1
2018-04-22T02:43:30.923Z,20.1
2018-04-22T02:44:20.780Z,20.1
2018-04-22T02:45:10.549Z,20.1
2018-04-22T02:46:00.931Z,20.1
2018-04-22T02:46:51.279Z,20.1
2018-04-22T02:47:40.748Z,20.1
2018-04-22T02:48:30.241Z,20.1
2018-04-22T02:49:21.684Z,20.1
2018-04-22T02:50:10.934Z,20.1
2018-04-22T02:51:01.324Z,20.1
2018-04-22T02:51:51.674Z,20.1
2018-04-22T02:52:41.406Z,20.1
2018-04-22T02:53:30.925Z,20.1
2018-04-22T02:54:21.825Z,20.1
2018-04-22T02:55:11.883Z,20.1
2018-04-22T02:56:01.093Z,20.1
2018-04-22T02:56:51.479Z,20.1
2018-04-22T02:57:42.088Z,20.1
2018-04-22T02:58:31.578Z,20
2018-04-22T02:59:22.451Z,20
2018-04-22T03:00:12.261Z,20
2018-04-22T03:01:01.734Z,20
2018-04-22T03:01:51.879Z,20
2018-04-22T03:02:41.321Z,20
2018-04-22T03:03:32.213Z,20
2018-04-22T03:04:22.590Z,20
2018-04-22T03:05:12.323Z,20
2018-04-22T03:06:02.173Z,20
2018-04-22T03:06:52.746Z,20
2018-04-22T03:07:41.765Z,19.9
2018-04-22T03:08:32.640Z,20
2018-04-22T03:09:22.463Z,19.9
2018-04-22T03:10:12.527Z,19.9
2018-04-22T03:11:02.218Z,19.9
2018-04-22T03:11:53.139Z,19.9
2018-04-22T03:12:43.499Z,19.9
2018-04-22T03:13:33.233Z,19.9
2018-04-22T03:14:23.295Z,19.9
2018-04-22T03:15:13.652Z,19.9
2018-04-22T03:16:03.451Z,19.9
2018-04-22T03:16:53.254Z,19.9
2018-04-22T03:17:43.870Z,19.9
2018-04-22T03:18:33.917Z,19.9
2018-04-22T03:19:23.961Z,19.9
2018-04-22T03:20:13.754Z,19.9
2018-04-22T03:21:03.262Z,19.9
2018-04-22T03:21:53.347Z,19.9
2018-04-22T03:22:43.145Z,19.9
2018-04-22T03:23:32.876Z,19.9
2018-04-22T03:24:24.353Z,19.9
2018-04-22T03:25:14.412Z,19.9
2018-04-22T03:26:03.644Z,19.9
2018-04-22T03:26:54.351Z,19.9
2018-04-22T03:27:43.486Z,19.8
2018-04-22T03:28:34.380Z,19.8
2018-04-22T03:29:24.207Z,19.8
2018-04-22T03:30:14.540Z,19.8
2018-04-22T03:31:04.872Z,19.8
2018-04-22T03:31:54.422Z,19.8
2018-04-22T03:32:44.725Z,19.8
2018-04-22T03:33:34.769Z,19.8
2018-04-22T03:34:24.262Z,19.8
2018-04-22T03:35:15.215Z,19.8
2018-04-22T03:36:05.260Z,19.8
2018-04-22T03:36:55.318Z,19.8
2018-04-22T03:37:45.082Z,19.8
2018-04-22T03:38:35.135Z,19.8
2018-04-22T03:39:25.515Z,19.8
2018-04-22T03:40:15.505Z,19.8
2018-04-22T03:41:05.638Z,19.8
2018-04-22T03:41:55.388Z,19.8
2018-04-22T03:42:45.183Z,19.8
2018-04-22T03:43:35.885Z,19.8
2018-04-22T03:44:25.860Z,19.8
2018-04-22T03:45:15.636Z,19.8
2018-04-22T03:46:05.753Z,19.8
2018-04-22T03:46:55.490Z,19.8
2018-04-22T03:47:44.710Z,19.7
2018-04-22T03:48:35.893Z,19.7
2018-04-22T03:49:26.236Z,19.7
2018-04-22T03:50:15.743Z,19.7
2018-04-22T03:51:06.061Z,19.7
2018-04-22T03:51:56.458Z,19.7
2018-04-22T03:52:45.979Z,19.7
2018-04-22T03:53:36.018Z,19.7
2018-04-22T03:54:26.694Z,19.7
2018-04-22T03:55:16.156Z,19.7
2018-04-22T03:56:06.790Z,19.7
2018-04-22T03:56:56.249Z,19.7
2018-04-22T03:57:46.859Z,19.6
2018-04-22T03:58:36.393Z,19.6
2018-04-22T03:59:26.166Z,19.6
2018-04-22T04:00:17.068Z,19.6
2018-04-22T04:01:06.530Z,19.6
2018-04-22T04:01:56.101Z,19.6
2018-04-22T04:02:46.421Z,19.6
2018-04-22T04:03:36.747Z,19.6
2018-04-22T04:04:27.448Z,19.6
2018-04-22T04:05:17.473Z,19.6
2018-04-22T04:06:07.247Z,19.6
2018-04-22T04:06:57.323Z,19.6
2018-04-22T04:07:47.345Z,19.6
2018-04-22T04:08:37.718Z,19.6
2018-04-22T04:09:26.927Z,19.6
2018-04-22T04:10:17.520Z,19.6
2018-04-22T04:11:07.882Z,19.6
2018-04-22T04:11:57.668Z,19.6
2018-04-22T04:12:48.012Z,19.6
2018-04-22T04:13:38.081Z,19.6
2018-04-22T04:14:27.879Z,19.6
2018-04-22T04:15:17.902Z,19.6
2018-04-22T04:16:07.992Z,19.6
2018-04-22T04:16:58.387Z,19.6
2018-04-22T04:17:47.866Z,19.6
2018-04-22T04:18:38.167Z,19.5
2018-04-22T04:19:28.078Z,19.6
2018-04-22T04:20:17.749Z,19.6
2018-04-22T04:21:08.649Z,19.5
2018-04-22T04:21:57.911Z,19.6
2018-04-22T04:22:48.785Z,19.5
2018-04-22T04:23:38.022Z,19.5
2018-04-22T04:24:28.877Z,19.5
2018-04-22T04:25:17.880Z,19.5
2018-04-22T04:26:08.493Z,19.5
2018-04-22T04:26:58.543Z,19.5
2018-04-22T04:27:48.939Z,19.5
2018-04-22T04:28:38.711Z,19.5
2018-04-22T04:29:28.801Z,19.5
2018-04-22T04:30:18.239Z,19.5
2018-04-22T04:31:09.448Z,19.5
2018-04-22T04:31:58.923Z,19.5
2018-04-22T04:32:49.518Z,19.5
2018-04-22T04:33:39.033Z,19.5
2018-04-22T04:34:29.406Z,19.5
2018-04-22T04:35:19.499Z,19.5
2018-04-22T04:36:09.664Z,19.4
2018-04-22T04:36:59.062Z,19.5
2018-04-22T04:37:49.082Z,19.4
2018-04-22T04:38:39.986Z,19.4
2018-04-22T04:39:29.775Z,19.4
2018-04-22T04:40:20.308Z,19.4
2018-04-22T04:41:09.641Z,19.4
2018-04-22T04:41:59.676Z,19.4
2018-04-22T04:42:50.299Z,19.4
2018-04-22T04:43:40.369Z,19.4
2018-04-22T04:44:29.863Z,19.4
2018-04-22T04:45:19.650Z,19.4
2018-04-22T04:46:09.674Z,19.4
2018-04-22T04:47:00.600Z,19.4
2018-04-22T04:47:50.656Z,19.4
2018-04-22T04:48:40.442Z,19.4
2018-04-22T04:49:30.032Z,19.4
2018-04-22T04:50:20.351Z,19.4
2018-04-22T04:51:10.939Z,19.4
2018-04-22T04:52:00.451Z,19.4
2018-04-22T04:52:50.263Z,19.4
2018-04-22T04:53:40.538Z,19.4
2018-04-22T04:54:31.156Z,19.4
2018-04-22T04:55:21.301Z,19.4
2018-04-22T04:56:11.359Z,19.4
2018-04-22T04:57:00.823Z,19.4
2018-04-22T04:57:50.858Z,19.4
2018-04-22T04:58:41.209Z,19.4
2018-04-22T04:59:31.566Z,19.4
2018-04-22T05:00:20.854Z,19.4
2018-04-22T05:01:11.426Z,19.4
2018-04-22T05:02:01.481Z,19.4
2018-04-22T05:02:51.565Z,19.4
2018-04-22T05:03:41.319Z,19.4
2018-04-22T05:04:31.139Z,19.4
2018-04-22T05:05:21.746Z,19.4
2018-04-22T05:06:11.594Z,19.4
2018-04-22T05:07:02.168Z,19.4
2018-04-22T05:07:51.631Z,19.4
2018-04-22T05:08:41.988Z,19.4
2018-04-22T05:09:32.298Z,19.4
2018-04-22T05:10:21.618Z,19.4
2018-04-22T05:11:12.507Z,19.4
2018-04-22T05:12:01.997Z,19.4
2018-04-22T05:12:52.024Z,19.4
2018-04-22T05:13:42.068Z,19.4
2018-04-22T05:14:32.485Z,19.4
2018-04-22T05:15:22.178Z,19.4
2018-04-22T05:16:12.230Z,19.4
2018-04-22T05:17:02.641Z,19.4
2018-04-22T05:17:52.693Z,19.5
2018-04-22T05:18:43.081Z,19.5
2018-04-22T05:19:33.105Z,19.5
2018-04-22T05:20:22.582Z,19.6
2018-04-22T05:21:12.391Z,19.6
2018-04-22T05:22:03.023Z,19.6
2018-04-22T05:22:52.507Z,19.6
2018-04-22T05:23:43.370Z,19.6
2018-04-22T05:24:32.629Z,19.6
2018-04-22T05:25:23.252Z,19.6
2018-04-22T05:26:13.038Z,19.6
2018-04-22T05:27:03.442Z,19.6
2018-04-22T05:27:53.418Z,19.6
2018-04-22T05:28:43.786Z,19.7
2018-04-22T05:29:33.819Z,19.7
2018-04-22T05:30:23.597Z,19.7
2018-04-22T05:31:14.158Z,19.7
2018-04-22T05:32:04.001Z,19.8
2018-04-22T05:32:54.096Z,19.8
2018-04-22T05:33:44.158Z,19.8
2018-04-22T05:34:34.214Z,19.8
2018-04-22T05:35:23.761Z,19.8
2018-04-22T05:36:14.058Z,19.8
2018-04-22T05:37:04.424Z,19.8
2018-04-22T05:37:54.222Z,19.8
2018-04-22T05:38:44.512Z,19.8
2018-04-22T05:39:34.307Z,19.8
2018-04-22T05:40:24.623Z,19.8
2018-04-22T05:41:14.191Z,19.8
2018-04-22T05:42:04.782Z,19.9
2018-04-22T05:42:54.826Z,19.9
2018-04-22T05:43:44.402Z,19.9
2018-04-22T05:44:34.404Z,19.9
2018-04-22T05:45:24.724Z,19.9
2018-04-22T05:46:14.556Z,19.9
2018-04-22T05:47:05.161Z,19.9
2018-04-22T05:47:55.238Z,19.9
2018-04-22T05:48:44.942Z,19.9
2018-04-22T05:49:35.384Z,19.9
2018-04-22T05:50:25.146Z,19.9
2018-04-22T05:51:14.641Z,19.9
2018-04-22T05:52:05.276Z,20
2018-04-22T05:52:55.338Z,20
2018-04-22T05:53:45.678Z,20
2018-04-22T05:54:35.443Z,20
2018-04-22T05:55:25.219Z,20
2018-04-22T05:56:15.598Z,20
2018-04-22T05:57:05.076Z,20
2018-04-22T05:57:55.446Z,20
2018-04-22T05:58:46.047Z,20
2018-04-22T05:59:35.344Z,20
2018-04-22T06:00:25.346Z,20
2018-04-22T06:01:15.417Z,20
2018-04-22T06:02:05.746Z,20
2018-04-22T06:02:56.660Z,20
2018-04-22T06:03:45.852Z,20
2018-04-22T06:04:35.664Z,20
2018-04-22T06:05:26.281Z,20.1
2018-04-22T06:06:16.373Z,20.1
2018-04-22T06:07:05.576Z,20.1
2018-04-22T06:07:56.521Z,20.1
2018-04-22T06:08:46.436Z,20.1
2018-04-22T06:09:36.647Z,20.1
2018-04-22T06:10:26.091Z,20.1
2018-04-22T06:11:16.542Z,20.1
2018-04-22T06:12:06.851Z,20.1
2018-04-22T06:12:57.104Z,20.1
2018-04-22T06:13:46.612Z,20.2
2018-04-22T06:14:36.991Z,20.1
2018-04-22T06:15:27.360Z,20.1
2018-04-22T06:16:17.371Z,20.1
2018-04-22T06:17:06.646Z,20.2
2018-04-22T06:17:56.389Z,20.2
2018-04-22T06:18:47.013Z,20.2
2018-04-22T06:19:37.359Z,20.2
2018-04-22T06:20:27.701Z,20.2
2018-04-22T06:21:16.932Z,20.2
2018-04-22T06:22:06.531Z,20.2
2018-04-22T06:22:57.503Z,20.2
2018-04-22T06:23:47.359Z,20.2
2018-04-22T06:24:37.177Z,20.2
2018-04-22T06:25:27.814Z,20.2
2018-04-22T06:26:16.994Z,20.2
2018-04-22T06:27:07.637Z,20.2
2018-04-22T06:27:57.711Z,20.2
2018-04-22T06:28:47.754Z,20.2
2018-04-22T06:29:38.137Z,20.2
2018-04-22T06:30:28.453Z,20.2
2018-04-22T06:31:18.224Z,20.3
2018-04-22T06:32:08.332Z,20.3
2018-04-22T06:32:56.514Z,20.3
2018-04-22T06:33:47.878Z,20.3
2018-04-22T06:34:37.658Z,20.3
2018-04-22T06:35:28.256Z,20.3
2018-04-22T06:36:18.341Z,20.3
2018-04-22T06:37:08.426Z,20.3
2018-04-22T06:37:59.039Z,20.3
2018-04-22T06:38:49.116Z,20.3
2018-04-22T06:39:38.315Z,20.3
2018-04-22T06:40:28.933Z,20.3
2018-04-22T06:41:18.491Z,20.3
2018-04-22T06:42:08.248Z,20.3
2018-04-22T06:42:58.872Z,20.3
2018-04-22T06:43:48.431Z,20.3
2018-04-22T06:44:39.009Z,20.3
2018-04-22T06:45:29.332Z,20.4
2018-04-22T06:46:18.833Z,20.4
2018-04-22T06:47:09.457Z,20.4
2018-04-22T06:47:58.970Z,20.4
2018-04-22T06:48:49.073Z,20.4
2018-04-22T06:49:39.078Z,20.4
2018-04-22T06:50:29.414Z,20.4
2018-04-22T06:51:18.956Z,20.4
2018-04-22T06:52:09.544Z,20.4
2018-04-22T06:52:59.897Z,20.4
2018-04-22T06:53:49.667Z,20.4
2018-04-22T06:54:39.985Z,20.4
2018-04-22T06:55:30.109Z,20.4
2018-04-22T06:56:19.959Z,20.4
2018-04-22T06:57:10.502Z,20.4
2018-04-22T06:58:00.023Z,20.4
2018-04-22T06:58:50.599Z,20.4
2018-04-22T06:59:40.404Z,20.4
2018-04-22T07:00:30.747Z,20.4
2018-04-22T07:01:19.971Z,20.4
2018-04-22T07:02:09.748Z,20.4
2018-04-22T07:03:00.103Z,20.5
2018-04-22T07:03:50.157Z,20.4
2018-04-22T07:04:41.105Z,20.5
2018-04-22T07:05:30.251Z,20.5
2018-04-22T07:06:20.656Z,20.6
2018-04-22T07:07:10.437Z,20.5
2018-04-22T07:08:00.519Z,20.6
2018-04-22T07:08:51.401Z,20.6
2018-04-22T07:09:40.912Z,20.6
2018-04-22T07:10:30.691Z,20.6
2018-04-22T07:11:21.286Z,20.6
2018-04-22T07:12:11.395Z,20.6
2018-04-22T07:13:00.999Z,20.6
2018-04-22T07:13:50.374Z,20.6
2018-04-22T07:14:41.348Z,20.6
2018-04-22T07:15:31.946Z,20.6
2018-04-22T07:16:22.007Z,20.6
2018-04-22T07:17:11.538Z,20.6
2018-04-22T07:18:02.098Z,20.6
2018-04-22T07:18:51.621Z,20.6
2018-04-22T07:19:42.316Z,20.6
2018-04-22T07:20:32.356Z,20.6
2018-04-22T07:21:21.882Z,20.6
2018-04-22T07:22:12.176Z,20.6
2018-04-22T07:23:02.457Z,20.6
2018-04-22T07:23:52.062Z,20.6
2018-04-22T07:24:42.029Z,20.6
2018-04-22T07:25:32.367Z,20.6
2018-04-22T07:26:22.765Z,20.6
2018-04-22T07:27:11.982Z,20.6
2018-04-22T07:28:02.905Z,20.6
2018-04-22T07:28:52.630Z,20.6
2018-04-22T07:29:42.404Z,20.7
2018-04-22T07:30:32.350Z,20.6
2018-04-22T07:31:21.444Z,20.7
2018-04-22T07:32:11.803Z,20.7
2018-04-22T07:33:02.365Z,20.7
2018-04-22T07:33:51.916Z,20.7
2018-04-22T07:34:42.851Z,20.7
2018-04-22T07:35:31.425Z,20.7
2018-04-22T07:36:21.596Z,20.7
2018-04-22T07:37:12.443Z,20.7
2018-04-22T07:38:02.590Z,20.7
2018-04-22T07:38:52.602Z,20.7
2018-04-22T07:39:42.153Z,20.7
2018-04-22T07:40:32.733Z,20.7
2018-04-22T07:41:23.093Z,20.7
2018-04-22T07:42:12.851Z,20.8
2018-04-22T07:43:03.488Z,20.8
2018-04-22T07:43:53.001Z,20.8
2018-04-22T07:44:43.612Z,20.8
2018-04-22T07:45:33.970Z,20.8
2018-04-22T07:46:23.560Z,20.8
2018-04-22T07:47:13.023Z,20.8
2018-04-22T07:48:03.592Z,20.8
2018-04-22T07:48:53.535Z,20.8
2018-04-22T07:49:43.715Z,20.8
2018-04-22T07:50:33.559Z,20.8
2018-04-22T07:51:23.581Z,20.8
2018-04-22T07:52:14.467Z,20.8
2018-04-22T07:53:03.949Z,20.8
2018-04-22T07:53:53.562Z,20.8
2018-04-22T07:54:44.192Z,20.9
2018-04-22T07:55:34.160Z,20.8
2018-04-22T07:56:23.623Z,20.9
2018-04-22T07:57:14.251Z,20.9
2018-04-22T07:58:04.614Z,20.9
2018-04-22T07:58:53.917Z,20.9
2018-04-22T07:59:44.464Z,20.9
2018-04-22T08:00:33.553Z,20.9
2018-04-22T08:01:24.623Z,20.9
2018-04-22T08:02:14.446Z,20.9
2018-04-22T08:03:05.280Z,20.9
2018-04-22T08:03:54.817Z,20.9
2018-04-22T08:04:45.661Z,20.9
2018-04-22T08:05:34.902Z,20.9
2018-04-22T08:06:25.514Z,20.9
2018-04-22T08:07:15.868Z,20.9
2018-04-22T08:08:05.693Z,20.9
2018-04-22T08:08:55.478Z,20.9
2018-04-22T08:09:45.797Z,20.9
2018-04-22T08:10:36.136Z,20.9
2018-04-22T08:11:25.931Z,20.9
2018-04-22T08:12:15.965Z,20.9
2018-04-22T08:13:06.340Z,20.9
2018-04-22T08:13:55.327Z,20.9
2018-04-22T08:14:46.179Z,21
2018-04-22T08:15:35.983Z,21
2018-04-22T08:16:26.091Z,21
2018-04-22T08:17:16.660Z,21
2018-04-22T08:18:05.880Z,21
2018-04-22T08:18:56.186Z,21
2018-04-22T08:19:45.837Z,21
2018-04-22T08:20:35.819Z,21
2018-04-22T08:21:26.693Z,21
2018-04-22T08:22:16.766Z,21.1
2018-04-22T08:23:06.247Z,21.1
2018-04-22T08:23:56.627Z,21.1
2018-04-22T08:24:47.215Z,21.1
2018-04-22T08:25:37.037Z,21.1
2018-04-22T08:26:26.546Z,21.1
2018-04-22T08:27:17.458Z,21.1
2018-04-22T08:38:08.273Z,21.2
2018-04-22T08:38:58.030Z,21.2
2018-04-22T08:39:47.876Z,21.2
2018-04-22T08:40:37.335Z,21.2
2018-04-22T08:41:27.503Z,21.2
2018-04-22T08:42:17.292Z,21.2
2018-04-22T08:43:08.285Z,21.2
2018-04-22T08:43:58.676Z,21.3
2018-04-22T08:44:48.785Z,21.3
2018-04-22T08:45:38.308Z,21.3
2018-04-22T08:46:28.725Z,21.3
2018-04-22T08:47:18.962Z,21.3
2018-04-22T08:48:09.100Z,21.3
2018-04-22T08:48:58.839Z,21.3
2018-04-22T08:49:48.880Z,21.3
2018-04-22T08:50:39.545Z,21.3
2018-04-22T08:51:28.737Z,21.3
2018-04-22T08:52:18.334Z,21.3
2018-04-22T08:53:09.135Z,21.3
2018-04-22T08:53:58.945Z,21.3
2018-04-22T08:54:48.744Z,21.3
2018-04-22T08:55:39.597Z,21.3
2018-04-22T08:56:29.440Z,21.3
2018-04-22T08:57:19.476Z,21.3
2018-04-22T08:58:09.896Z,21.3
2018-04-22T08:58:59.657Z,21.3
2018-04-22T08:59:49.639Z,21.3
2018-04-22T09:00:39.194Z,21.3
2018-04-22T09:01:29.778Z,21.3
2018-04-22T09:02:19.849Z,21.3
2018-04-22T09:03:10.191Z,21.3
2018-04-22T09:03:59.981Z,21.3
2018-04-22T09:04:49.779Z,21.3
2018-04-22T09:05:40.441Z,21.3
2018-04-22T09:06:30.467Z,21.3
2018-04-22T09:07:20.250Z,21.3
2018-04-22T09:08:10.592Z,21.3
2018-04-22T09:09:00.614Z,21.3
2018-04-22T09:09:50.755Z,21.3
2018-04-22T09:10:40.240Z,21.3
2018-04-22T09:11:30.840Z,21.3
2018-04-22T09:12:19.799Z,21.3
2018-04-22T09:13:10.176Z,21.3
2018-04-22T09:14:01.066Z,21.3
2018-04-22T09:14:50.293Z,21.3
2018-04-22T09:15:41.164Z,21.3
2018-04-22T09:16:30.793Z,21.3
2018-04-22T09:17:20.464Z,21.3
2018-04-22T09:18:11.411Z,21.3
2018-04-22T09:19:01.158Z,21.3
2018-04-22T09:19:51.226Z,21.3
2018-04-22T09:20:41.327Z,21.3
2018-04-22T09:21:30.556Z,21.3
2018-04-22T09:22:21.248Z,21.3
2018-04-22T09:23:11.221Z,21.3
2018-04-22T09:24:01.830Z,21.3
2018-04-22T09:24:51.337Z,21.3
2018-04-22T09:25:41.424Z,21.3
2018-04-22T09:26:31.776Z,21.3
2018-04-22T09:27:21.566Z,21.3
2018-04-22T09:28:11.611Z,21.3
2018-04-22T09:29:02.203Z,21.3
2018-04-22T09:29:51.702Z,21.3
2018-04-22T09:30:41.596Z,21.3
2018-04-22T09:31:31.860Z,21.3
2018-04-22T09:32:22.215Z,21.3
2018-04-22T09:33:13.029Z,21.3
2018-04-22T09:34:02.356Z,21.3
2018-04-22T09:34:52.645Z,21.3
2018-04-22T09:35:42.518Z,21.3
2018-04-22T09:36:32.531Z,21.3
2018-04-22T09:37:22.278Z,21.3
2018-04-22T09:38:12.644Z,21.3
2018-04-22T09:39:02.425Z,21.3
2018-04-22T09:39:52.821Z,21.3
2018-04-22T09:40:43.088Z,21.3
2018-04-22T09:41:33.206Z,21.3
2018-04-22T09:42:22.963Z,21.3
2018-04-22T09:43:13.641Z,21.3
2018-04-22T09:44:03.409Z,21.3
2018-04-22T09:44:53.410Z,21.3
2018-04-22T09:45:43.210Z,21.3
2018-04-22T09:46:33.261Z,21.3
2018-04-22T09:47:23.416Z,21.3
2018-04-22T09:48:13.742Z,21.3
2018-04-22T09:49:03.473Z,21.3
2018-04-22T09:49:53.885Z,21.3
2018-04-22T09:50:43.045Z,21.3
2018-04-22T09:51:34.012Z,21.3
2018-04-22T09:52:24.026Z,21.3
2018-04-22T09:53:13.573Z,21.3
2018-04-22T09:54:03.887Z,21.3
2018-04-22T09:54:53.956Z,21.4
2018-04-22T09:55:44.285Z,21.4
2018-04-22T09:56:33.792Z,21.3
2018-04-22T09:57:24.166Z,21.4
2018-04-22T09:58:14.480Z,21.4
2018-04-22T09:59:04.330Z,21.4
2018-04-22T09:59:54.654Z,21.4
2018-04-22T10:00:44.424Z,21.3
2018-04-22T10:01:34.197Z,21.4
2018-04-22T10:02:24.805Z,21.4
2018-04-22T10:03:14.852Z,21.4
2018-04-22T10:04:04.382Z,21.4
2018-04-22T10:04:55.108Z,21.4
2018-04-22T10:05:44.497Z,21.4
2018-04-22T10:06:35.187Z,21.4
2018-04-22T10:07:24.927Z,21.4
2018-04-22T10:08:15.014Z,21.4
2018-04-22T10:09:05.052Z,21.4
2018-04-22T10:09:55.390Z,21.4
2018-04-22T10:10:45.166Z,21.4
2018-04-22T10:11:35.253Z,21.4
2018-04-22T10:12:25.306Z,21.4
2018-04-22T10:13:15.351Z,21.4
2018-04-22T10:14:05.523Z,21.4
2018-04-22T10:14:55.239Z,21.4
2018-04-22T10:15:45.569Z,21.4
2018-04-22T10:16:35.932Z,21.4
2018-04-22T10:17:25.972Z,21.4
2018-04-22T10:18:15.229Z,21.4
2018-04-22T10:19:04.510Z,21.4
2018-04-22T10:19:55.182Z,21.4
2018-04-22T10:20:46.252Z,21.4
2018-04-22T10:21:36.305Z,21.4
2018-04-22T10:22:26.159Z,21.4
2018-04-22T10:23:16.156Z,21.4
2018-04-22T10:24:05.649Z,21.4
2018-04-22T10:24:56.296Z,21.4
2018-04-22T10:25:46.359Z,21.4
2018-04-22T10:26:36.733Z,21.4
2018-04-22T10:27:26.551Z,21.4
2018-04-22T10:28:15.977Z,21.4
2018-04-22T10:29:06.328Z,21.4
2018-04-22T10:29:56.980Z,21.4
2018-04-22T10:30:46.467Z,21.5
2018-04-22T10:31:36.535Z,21.5
2018-04-22T10:32:27.157Z,21.5
2018-04-22T10:33:17.231Z,21.5
2018-04-22T10:34:07.357Z,21.5
2018-04-22T10:34:56.274Z,21.5
2018-04-22T10:35:47.140Z,21.6
2018-04-22T10:36:37.670Z,21.6
2018-04-22T10:37:26.999Z,21.6
2018-04-22T10:38:17.611Z,21.6
2018-04-22T10:39:07.121Z,21.6
2018-04-22T10:39:57.755Z,21.6
2018-04-22T10:40:47.280Z,21.6
2018-04-22T10:41:37.619Z,21.6
2018-04-22T10:42:27.095Z,21.6
2018-04-22T10:43:17.479Z,21.6
2018-04-22T10:44:07.241Z,21.6
2018-04-22T10:44:57.881Z,21.6
2018-04-22T10:45:47.366Z,21.6
2018-04-22T10:46:38.037Z,21.6
2018-04-22T10:47:27.792Z,21.6
2018-04-22T10:48:18.389Z,21.6
2018-04-22T10:49:07.894Z,21.6
2018-04-22T10:49:57.722Z,21.6
2018-04-22T10:50:48.609Z,21.6
2018-04-22T10:51:38.363Z,21.7
2018-04-22T10:52:28.689Z,21.7
2018-04-22T10:53:18.490Z,21.8
2018-04-22T10:54:08.623Z,21.8
2018-04-22T10:54:58.665Z,21.8
2018-04-22T10:55:48.693Z,21.8
2018-04-22T10:56:38.520Z,21.8
2018-04-22T10:57:28.072Z,21.8
2018-04-22T10:58:18.339Z,21.8
2018-04-22T10:59:08.660Z,21.8
2018-04-22T10:59:59.425Z,21.8
2018-04-22T11:00:48.882Z,21.8
2018-04-22T11:01:38.872Z,21.8
2018-04-22T11:02:29.516Z,21.8
2018-04-22T11:03:19.002Z,21.8
2018-04-22T11:04:09.084Z,21.8
2018-04-22T11:04:58.969Z,21.8
2018-04-22T11:05:49.487Z,21.8
2018-04-22T11:06:39.845Z,21.8
2018-04-22T11:07:29.889Z,21.8
2018-04-22T11:08:19.120Z,21.8
2018-04-22T11:09:09.741Z,21.8
2018-04-22T11:09:59.259Z,21.8
2018-04-22T11:10:49.319Z,21.8
2018-04-22T11:11:39.677Z,21.8
2018-04-22T11:12:29.711Z,21.8
2018-04-22T11:13:20.084Z,21.8
2018-04-22T11:14:10.127Z,21.8
2018-04-22T11:14:59.632Z,21.8
2018-04-22T11:15:49.717Z,21.8
2018-04-22T11:16:40.166Z,21.8
2018-04-22T11:17:30.104Z,21.8
2018-04-22T11:18:20.787Z,21.8
2018-04-22T11:19:10.636Z,21.8
2018-04-22T11:20:00.896Z,21.8
2018-04-22T11:20:50.059Z,21.8
2018-04-22T11:21:40.986Z,21.8
2018-04-22T11:22:31.049Z,21.8
2018-04-22T11:23:20.919Z,21.8
2018-04-22T11:24:10.902Z,21.8
2018-04-22T11:25:00.734Z,21.8
2018-04-22T11:25:51.300Z,21.8
2018-04-22T11:26:40.827Z,21.8
2018-04-22T11:27:31.810Z,21.8